x

Columbia River Bar - 20nm West Of Columbia River Mouth (46029) Wave Buoy

1:50pm - Thu 22nd Feb 2018 All times are PST. -8 hours from GMT.

  • Sig Wave height 7.9ft
  • Swell Direction
  • Peak Period 9s
  • Average Period 8s
  • Wind
    7mph, 11mph gusts
  • Sea Temp 47°f
  • Air Temp 38°f
  • Sea Pressure 1027.2mb
  • Columbia River Bar - 20nm West Of Columbia River Mouth
  • Columbia River Bar - 20nm West Of Columbia River Mouth

More Historic Weather Station data

Upgrade to MSW Pro to gain access to the past 30 days of data for over 8000 Wavebouys and Weather Stations around the globe.

Join

Comparision Forecast

View Surf forecast
   
Thu 02/22 1:50pm 8ft 9s 8s 7 11 mph 1027.2mb 47f 38f
12:50pm 8ft 9s 8s 9 11 mph 1027.3mb 47f 38f
11:50am 8ft 10s 8s 9 13 mph 1027.2mb 47f 38f
10:50am 8ft 10s 7s 16 20 mph 1026.8mb 46f 37f
9:50am 9ft 10s 7s 20 25 mph 1026.1mb 46f 37f
8:50am 8.5ft 9s 7s 20 25 mph 1024.9mb 47f 37f
7:50am 8.5ft 9s 6s 20 25 mph 1023.9mb 47f 37f
6:50am 8ft 8s 6s 20 27 mph 1022.7mb 46f 37f
5:50am 8ft 9s 6s 22 27 mph 1021.5mb 46f 37f
4:50am 7ft 8s 6s 22 27 mph 1020.5mb 46f 37f
3:50am 5.5ft 13s 6s 16 20 mph 1019.7mb 46f 38f
2:50am 5ft 13s 7s 9 13 mph 1019.2mb 46f 37f
1:50am 5ft 13s 7s 9 11 mph 1019mb 47f 35f
12:50am 4.5ft 13s 6s 11 13 mph 1019.1mb 47f 35f
Wed 02/21 11:50pm 4.5ft 13s 7s 13 18 mph 1019.3mb 47f 40f
10:50pm 4.5ft 11s 7s 4 7 mph 1019.7mb 47f 41f
9:50pm 4.5ft 14s 7s 9 11 mph 1020.2mb 47f 41f
8:50pm 5ft 14s 8s 7 11 mph 1020.9mb 47f 40f
7:50pm 4.5ft 14s 7s 2 4 mph 1021.3mb 47f 39f
6:50pm 5ft 14s 8s 7 9 mph 1022.1mb 47f 39f
5:50pm 5ft 14s 8s 4 16 mph 1022.6mb 47f 42f
4:50pm 6ft 14s 9s 9 16 mph 1023.4mb 47f 42f
3:50pm 6ft 12s 9s 13 16 mph 1024.3mb 47f 40f
2:50pm 5.5ft 13s 8s 7 9 mph 1025.5mb 47f 40f
1:50pm 6ft 14s 9s 4 7 mph 1026.1mb 47f 39f
12:50pm 6ft 14s 8s 4 7 mph 1026.6mb 47f 38f
11:50am 5.5ft 14s 8s 4 9 mph 1027mb 46f 37f
10:50am 6ft 14s 8s 9 13 mph 1027mb 46f 37f
9:50am 6ft 14s 8s 9 13 mph 1027.3mb 46f 36f
8:50am 5ft 14s 8s 11 13 mph 1027.4mb 46f 36f
7:50am 5ft 15s 7s 11 13 mph 1027.2mb 46f 36f
6:50am 5ft 15s 7s 11 13 mph 1026.5mb 47f 36f
5:50am 5ft 15s 6s 13 18 mph 1026.1mb 47f 36f
4:50am 5.5ft 15s 7s 18 22 mph 1025.8mb 47f 37f
3:50am 5ft 15s 6s 20 25 mph 1025.1mb 47f 37f
2:50am 4.5ft 15s 6s 20 25 mph 1025.6mb 47f 37f
1:50am 5ft 15s 6s 18 22 mph 1025.6mb 47f 37f
12:50am 6ft 15s 7s 18 22 mph 1025.3mb 47f 37f
Tue 02/20 11:50pm 5ft 15s 6s 18 22 mph 1024.5mb 47f 37f
10:50pm 5.5ft 15s 6s 18 22 mph 1023.9mb 47f 37f
9:50pm 5.5ft 15s 6s 16 18 mph 1023.1mb 47f 38f
8:50pm 5ft 15s 6s 16 20 mph 1022.3mb 47f 39f
7:50pm 5.5ft 16s 7s 16 20 mph 1021.5mb 47f 40f
6:50pm 5.5ft 15s 8s 11 16 mph 1021.2mb 47f 40f
5:50pm 5ft 15s 8s 11 16 mph 1020.4mb 47f 40f
4:50pm 5ft 15s 7s 11 13 mph 1019.8mb 47f 40f
3:50pm 5.5ft 16s 7s 9 13 mph 1019.4mb 47f 42f
2:50pm 6ft 16s 7s 11 16 mph 1018.9mb 47f 41f
1:50pm 6ft 16s 7s 9 13 mph 1018.9mb 47f 44f
12:50pm 5.5ft 16s 7s 13 16 mph 1019.2mb 47f 44f
11:50am 5ft 8s 6s 13 16 mph 1019.6mb 47f 42f
10:50am 6ft 16s 7s 13 18 mph 1019.6mb 47f 42f
9:50am 6ft 17s 7s 16 18 mph 1019.6mb 47f 42f
8:50am 6ft 8s 7s 13 16 mph 1019.7mb 46f 42f
7:50am 5.5ft 9s 6s 9 11 mph 1020.1mb 46f 40f
6:50am 6ft 9s 7s 11 16 mph 1019.9mb 46f 41f
5:50am 6ft 9s 7s 9 11 mph 1020.4mb 46f 41f
4:50am 6ft 10s 7s 13 18 mph 1020.6mb 46f 40f
3:50am 6ft 10s 6s 16 20 mph 1020.7mb 46f 40f
2:50am 6.5ft 10s 7s 20 25 mph 1021mb 46f 40f
1:50am 6ft 11s 7s 18 20 mph 1021.7mb 46f 39f
12:50am 6ft 11s 8s 18 22 mph 1022mb 46f 40f
Mon 02/19 11:50pm 7ft 11s 8s 13 16 mph 1022.4mb 46f 40f
10:50pm 6ft 10s 8s 9 11 mph 1023.1mb 45f 40f
9:50pm 7ft 11s 8s 4 7 mph 1023.6mb 45f 39f
8:50pm 7ft 11s 8s 2 4 mph 1023.7mb 46f 39f
7:50pm 7ft 11s 7s 4 7 mph 1023.6mb 46f 39f
6:50pm 7.5ft 10s 8s 7 11 mph 1023.6mb 46f 38f
5:50pm 8ft 11s 7s 11 13 mph 1023.5mb 47f 38f
4:50pm 8ft 11s 7s 13 18 mph 1023.7mb 47f 38f
3:50pm 10ft 11s 8s 13 18 mph 1023.9mb 47f 38f
2:50pm 10ft 11s 8s 4 7 mph 1023.9mb 47f 38f
1:50pm 11ft 11s 9s 4 9 mph 1023.9mb 47f 38f
12:50pm 11ft 11s 9s 4 9 mph 1023.9mb 47f 37f
11:50am 11ft 11s 9s 9 11 mph 1024mb 46f 36f
10:50am 10ft 12s 9s 13 16 mph 1023.6mb 46f 36f
9:50am 10.5ft 12s 9s 13 16 mph 1023.4mb 46f 35f
8:50am 11ft 11s 9s 13 18 mph 1022.8mb 46f 35f
7:50am 11ft 14s 8s 16 22 mph 1021.4mb 46f 35f
6:50am 12ft 12s 9s 18 20 mph 1020.3mb 46f 36f
5:50am 11.5ft 13s 9s 18 20 mph 1019.3mb 46f 36f
4:50am 11ft 11s 9s 16 22 mph 1017.7mb 46f 36f
3:50am 13ft 13s 9s 9 13 mph 1016.6mb 47f 37f
2:50am 14.5ft 14s 9s 11 18 mph 1016.3mb 47f 38f
1:50am 15.5ft 14s 9s 9 13 mph 1015.9mb 47f 37f
12:50am 15.5ft 14s 9s 4 9 mph 1015.2mb 47f 38f
Sun 02/18 11:50pm 16.5ft 12s 9s  -  4 mph 1015mb 48f 36f